Accueil
METAR-TAF:

METAR-TAF

Aéroports :

Kahramanmaraş, Turquie

latitude: 37-32-20N, longitude: 036-57-12E, altitude: 525 m

Observation

Le bulletin a été fait il y a 31 minutes, à 06:50 UTC
Vent 4 kt de ouest/sud-ouest, variant entre sud et nord-ouest
Température 25°C
Humidité 36%
Pression 1012 hPa
Visibilité 10 km ou plus
Quelques nuages à une hauteur de 4000 ft

METAR: LTCN 240650Z 25004KT 190V310 9999 FEW040 25/09 Q1012 NOSIG

Heure: 10:21 (07:21 UTC)

Prévision

Le bulletin a été fait il y a 2 heures et 41 minutes, à 04:40 UTC
Prévision valable du 24 à 06 UTC au 24 à 15 UTC
Vent 2 kt de direction variable
Visibilité 10 km ou plus
Quelques nuages à une hauteur de 4000 ft
Nuages épars à une hauteur de 10000 ft

TAF: LTCN 240440Z 2406/2415 VRB02KT 9999 FEW040 SCT100

Observations et prévisions météorologiques de plus de 4000 aéroports (messages METAR et TAF).

Les stations disponibles sont représentées par des disques jaunes et rouges sur la carte.

Passer la souris dessus pour voir le nom de la station.

Cliquer dessus pour voir les observations et prévisions météorologiques.

Pour changer de carte: cliquez sur les boutons verts avec une croix noire pour zoomer, sur le bouton vert avec un tiret pour effectuer un zoom arrière, ou sur les flèches vertes pour les cartes adjacentes.


METAR-TAF: